sensor_id;sensor_type;location;lat;lon;timestamp;pressure;altitude;pressure_sealevel;temperature;humidity
44453;BME280;30155;52.164;21.236;2022-10-19T00:03:55;100993.41;;;12.81;84.72
44453;BME280;30155;52.164;21.236;2022-10-19T00:08:47;100999.92;;;12.81;84.73
44453;BME280;30155;52.164;21.236;2022-10-19T00:13:38;100997.27;;;12.78;84.58
44453;BME280;30155;52.164;21.236;2022-10-19T00:18:30;100988.48;;;12.71;84.37
44453;BME280;30155;52.164;21.236;2022-10-19T00:23:21;100985.26;;;12.56;84.22
44453;BME280;30155;52.164;21.236;2022-10-19T00:28:12;100993.80;;;12.46;84.05
44453;BME280;30155;52.164;21.236;2022-10-19T00:33:03;100994.09;;;12.35;84.07
44453;BME280;30155;52.164;21.236;2022-10-19T00:37:54;101000.10;;;12.29;84.14
44453;BME280;30155;52.164;21.236;2022-10-19T00:42:46;101000.92;;;12.27;84.02
44453;BME280;30155;52.164;21.236;2022-10-19T00:47:37;100998.27;;;12.22;83.65
44453;BME280;30155;52.164;21.236;2022-10-19T00:52:29;101000.24;;;12.10;83.23
44453;BME280;30155;52.164;21.236;2022-10-19T00:57:22;101000.45;;;11.96;83.09
44453;BME280;30155;52.164;21.236;2022-10-19T01:02:15;100991.98;;;11.82;83.04
44453;BME280;30155;52.164;21.236;2022-10-19T01:07:07;101000.42;;;11.69;83.12
44453;BME280;30155;52.164;21.236;2022-10-19T01:12:03;100991.91;;;11.53;82.85
44453;BME280;30155;52.164;21.236;2022-10-19T01:33:37;100969.66;;;10.99;83.08
44453;BME280;30155;52.164;21.236;2022-10-19T01:38:35;100969.95;;;10.91;83.29
44453;BME280;30155;52.164;21.236;2022-10-19T01:44:00;100966.05;;;10.91;83.64
44453;BME280;30155;52.164;21.236;2022-10-19T01:48:55;100963.09;;;10.95;83.81
44453;BME280;30155;52.164;21.236;2022-10-19T01:53:58;100958.42;;;11.00;84.06
44453;BME280;30155;52.164;21.236;2022-10-19T01:58:55;100948.15;;;11.08;84.28
44453;BME280;30155;52.164;21.236;2022-10-19T02:03:48;100949.08;;;11.12;84.25
44453;BME280;30155;52.164;21.236;2022-10-19T02:08:46;100950.02;;;11.15;84.47
44453;BME280;30155;52.164;21.236;2022-10-19T02:13:39;100946.61;;;11.18;84.55
44453;BME280;30155;52.164;21.236;2022-10-19T02:18:40;100940.04;;;11.15;84.65
44453;BME280;30155;52.164;21.236;2022-10-19T02:23:35;100931.80;;;11.15;84.74
44453;BME280;30155;52.164;21.236;2022-10-19T02:28:27;100930.53;;;11.17;84.96
44453;BME280;30155;52.164;21.236;2022-10-19T02:33:20;100930.62;;;11.23;84.99
44453;BME280;30155;52.164;21.236;2022-10-19T02:38:14;100932.48;;;11.29;84.90
44453;BME280;30155;52.164;21.236;2022-10-19T02:43:11;100930.81;;;11.32;84.78
44453;BME280;30155;52.164;21.236;2022-10-19T02:48:06;100925.14;;;11.31;84.73
44453;BME280;30155;52.164;21.236;2022-10-19T02:53:03;100923.44;;;11.33;84.66
44453;BME280;30155;52.164;21.236;2022-10-19T02:57:54;100929.52;;;11.34;84.62
44453;BME280;30155;52.164;21.236;2022-10-19T03:02:47;100919.10;;;11.32;84.52
44453;BME280;30155;52.164;21.236;2022-10-19T03:07:38;100917.27;;;11.28;84.36
44453;BME280;30155;52.164;21.236;2022-10-19T03:12:29;100912.81;;;11.21;84.20
44453;BME280;30155;52.164;21.236;2022-10-19T03:17:20;100917.92;;;11.15;84.31
44453;BME280;30155;52.164;21.236;2022-10-19T03:22:12;100915.59;;;11.06;84.26
44453;BME280;30155;52.164;21.236;2022-10-19T03:27:06;100908.45;;;10.96;84.22
44453;BME280;30155;52.164;21.236;2022-10-19T03:31:57;100912.20;;;10.87;84.31
44453;BME280;30155;52.164;21.236;2022-10-19T03:36:48;100909.02;;;10.80;84.31
44453;BME280;30155;52.164;21.236;2022-10-19T03:41:40;100907.16;;;10.73;84.34
44453;BME280;30155;52.164;21.236;2022-10-19T03:46:33;100898.85;;;10.68;84.35
44453;BME280;30155;52.164;21.236;2022-10-19T03:51:26;100899.64;;;10.64;84.35
44453;BME280;30155;52.164;21.236;2022-10-19T03:56:20;100896.51;;;10.60;84.46
44453;BME280;30155;52.164;21.236;2022-10-19T04:01:16;100907.31;;;10.58;84.40
44453;BME280;30155;52.164;21.236;2022-10-19T04:06:15;100901.71;;;10.59;84.59
44453;BME280;30155;52.164;21.236;2022-10-19T04:11:12;100896.14;;;10.62;84.69
44453;BME280;30155;52.164;21.236;2022-10-19T04:16:04;100890.08;;;10.63;84.73
44453;BME280;30155;52.164;21.236;2022-10-19T04:26:33;100893.22;;;10.69;84.64
44453;BME280;30155;52.164;21.236;2022-10-19T04:31:30;100887.61;;;10.71;84.71
44453;BME280;30155;52.164;21.236;2022-10-19T04:36:21;100885.95;;;10.75;84.69
44453;BME280;30155;52.164;21.236;2022-10-19T04:41:16;100886.48;;;10.79;84.57
44453;BME280;30155;52.164;21.236;2022-10-19T04:46:17;100881.31;;;10.80;84.90
44453;BME280;30155;52.164;21.236;2022-10-19T04:51:18;100882.62;;;10.80;84.34
44453;BME280;30155;52.164;21.236;2022-10-19T04:56:27;100883.08;;;10.83;84.47
44453;BME280;30155;52.164;21.236;2022-10-19T05:01:22;100869.67;;;10.85;84.25
44453;BME280;30155;52.164;21.236;2022-10-19T05:06:27;100866.20;;;10.84;84.25
44453;BME280;30155;52.164;21.236;2022-10-19T05:11:25;100868.38;;;10.85;84.14
44453;BME280;30155;52.164;21.236;2022-10-19T05:16:18;100862.30;;;10.84;83.98
44453;BME280;30155;52.164;21.236;2022-10-19T05:21:12;100855.34;;;10.83;83.78
44453;BME280;30155;52.164;21.236;2022-10-19T05:26:07;100850.60;;;10.84;83.76
44453;BME280;30155;52.164;21.236;2022-10-19T05:31:11;100853.17;;;10.83;83.61
44453;BME280;30155;52.164;21.236;2022-10-19T05:36:21;100856.67;;;10.85;83.73
44453;BME280;30155;52.164;21.236;2022-10-19T05:41:18;100854.94;;;10.85;83.53
44453;BME280;30155;52.164;21.236;2022-10-19T05:46:13;100859.34;;;10.88;83.40
44453;BME280;30155;52.164;21.236;2022-10-19T05:51:08;100862.38;;;10.89;83.36
44453;BME280;30155;52.164;21.236;2022-10-19T05:56:07;100867.64;;;10.92;83.05
44453;BME280;30155;52.164;21.236;2022-10-19T06:01:00;100865.59;;;10.99;82.91
44453;BME280;30155;52.164;21.236;2022-10-19T06:05:52;100870.43;;;11.03;82.86
44453;BME280;30155;52.164;21.236;2022-10-19T06:10:45;100863.61;;;11.10;82.63
44453;BME280;30155;52.164;21.236;2022-10-19T06:15:37;100865.47;;;11.17;82.22
44453;BME280;30155;52.164;21.236;2022-10-19T06:20:30;100852.92;;;11.18;81.87
44453;BME280;30155;52.164;21.236;2022-10-19T06:25:23;100856.48;;;11.24;81.72
44453;BME280;30155;52.164;21.236;2022-10-19T06:35:21;100852.97;;;11.49;81.23
44453;BME280;30155;52.164;21.236;2022-10-19T06:40:12;100851.75;;;11.54;80.90
44453;BME280;30155;52.164;21.236;2022-10-19T06:45:11;100861.81;;;11.59;80.85
44453;BME280;30155;52.164;21.236;2022-10-19T06:50:10;100857.88;;;11.89;79.87
44453;BME280;30155;52.164;21.236;2022-10-19T07:00:11;100860.19;;;11.95;79.71
44453;BME280;30155;52.164;21.236;2022-10-19T07:05:04;100856.78;;;12.01;79.79
44453;BME280;30155;52.164;21.236;2022-10-19T07:09:56;100856.78;;;12.01;79.75
44453;BME280;30155;52.164;21.236;2022-10-19T07:14:47;100859.65;;;11.90;79.96
44453;BME280;30155;52.164;21.236;2022-10-19T07:19:39;100866.06;;;11.83;80.15
44453;BME280;30155;52.164;21.236;2022-10-19T07:24:30;100856.36;;;11.72;80.06
44453;BME280;30155;52.164;21.236;2022-10-19T07:29:41;100865.80;;;11.65;80.01
44453;BME280;30155;52.164;21.236;2022-10-19T07:34:37;100876.13;;;11.60;80.21
44453;BME280;30155;52.164;21.236;2022-10-19T07:39:35;100872.98;;;11.53;80.28
44453;BME280;30155;52.164;21.236;2022-10-19T07:44:54;100867.83;;;11.85;79.61
44453;BME280;30155;52.164;21.236;2022-10-19T07:49:57;100870.30;;;12.41;78.89
44453;BME280;30155;52.164;21.236;2022-10-19T07:55:11;100862.99;;;12.45;78.42
44453;BME280;30155;52.164;21.236;2022-10-19T08:05:48;100868.79;;;12.23;78.62
44453;BME280;30155;52.164;21.236;2022-10-19T08:21:53;100862.69;;;12.20;78.18
44453;BME280;30155;52.164;21.236;2022-10-19T08:38:13;100859.03;;;12.42;78.00
44453;BME280;30155;52.164;21.236;2022-10-19T08:44:04;100861.45;;;12.63;77.49
44453;BME280;30155;52.164;21.236;2022-10-19T09:19:01;100872.33;;;12.28;78.41
44453;BME280;30155;52.164;21.236;2022-10-19T10:32:56;100942.13;;;11.34;79.26
44453;BME280;30155;52.164;21.236;2022-10-19T10:38:54;100940.98;;;11.43;79.52
44453;BME280;30155;52.164;21.236;2022-10-19T12:29:16;100935.34;;;14.03;70.28
44453;BME280;30155;52.164;21.236;2022-10-19T12:34:49;100949.94;;;13.70;70.57
44453;BME280;30155;52.164;21.236;2022-10-19T13:19:51;100952.98;;;14.41;65.52
44453;BME280;30155;52.164;21.236;2022-10-19T13:36:18;100971.20;;;14.23;63.83
44453;BME280;30155;52.164;21.236;2022-10-19T13:41:29;100994.34;;;13.69;64.19
44453;BME280;30155;52.164;21.236;2022-10-19T13:46:41;101009.37;;;13.09;64.71
44453;BME280;30155;52.164;21.236;2022-10-19T14:08:22;101036.58;;;11.76;65.85
44453;BME280;30155;52.164;21.236;2022-10-19T14:13:30;101034.34;;;11.47;65.95
44453;BME280;30155;52.164;21.236;2022-10-19T14:23:38;101031.40;;;11.30;66.23
44453;BME280;30155;52.164;21.236;2022-10-19T14:28:32;101049.19;;;11.29;66.35
44453;BME280;30155;52.164;21.236;2022-10-19T14:33:27;101052.38;;;11.16;66.41
44453;BME280;30155;52.164;21.236;2022-10-19T14:38:32;101056.64;;;11.11;66.64
44453;BME280;30155;52.164;21.236;2022-10-19T14:43:30;101069.39;;;10.98;66.54
44453;BME280;30155;52.164;21.236;2022-10-19T14:48:22;101076.55;;;10.88;66.29
44453;BME280;30155;52.164;21.236;2022-10-19T14:53:32;101074.03;;;10.72;66.35
44453;BME280;30155;52.164;21.236;2022-10-19T14:58:26;101078.39;;;10.54;66.35
44453;BME280;30155;52.164;21.236;2022-10-19T15:03:24;101084.05;;;10.36;66.75
44453;BME280;30155;52.164;21.236;2022-10-19T15:08:20;101100.03;;;10.34;67.15
44453;BME280;30155;52.164;21.236;2022-10-19T15:13:30;101105.27;;;10.36;67.27
44453;BME280;30155;52.164;21.236;2022-10-19T15:18:26;101101.17;;;10.29;67.33
44453;BME280;30155;52.164;21.236;2022-10-19T15:28:39;101106.09;;;10.00;67.54
44453;BME280;30155;52.164;21.236;2022-10-19T15:33:42;101113.42;;;9.83;67.98
44453;BME280;30155;52.164;21.236;2022-10-19T15:38:41;101122.03;;;9.64;67.94
44453;BME280;30155;52.164;21.236;2022-10-19T15:43:36;101131.65;;;9.52;68.04
44453;BME280;30155;52.164;21.236;2022-10-19T15:48:43;101149.20;;;9.31;68.06
44453;BME280;30155;52.164;21.236;2022-10-19T15:53:39;101149.20;;;9.31;68.06
44453;BME280;30155;52.164;21.236;2022-10-19T15:58:30;101148.52;;;9.22;67.99
44453;BME280;30155;52.164;21.236;2022-10-19T16:03:23;101159.43;;;9.10;68.15
44453;BME280;30155;52.164;21.236;2022-10-19T16:08:16;101172.84;;;9.11;68.18
44453;BME280;30155;52.164;21.236;2022-10-19T16:13:07;101177.76;;;9.02;68.18
44453;BME280;30155;52.164;21.236;2022-10-19T16:18:03;101183.97;;;8.93;68.24
44453;BME280;30155;52.164;21.236;2022-10-19T16:22:56;101193.63;;;8.84;68.32
44453;BME280;30155;52.164;21.236;2022-10-19T16:27:48;101197.06;;;8.70;68.44
44453;BME280;30155;52.164;21.236;2022-10-19T16:32:39;101203.36;;;8.64;68.63
44453;BME280;30155;52.164;21.236;2022-10-19T16:37:30;101219.94;;;8.56;68.95
44453;BME280;30155;52.164;21.236;2022-10-19T16:42:21;101214.06;;;8.48;69.10
44453;BME280;30155;52.164;21.236;2022-10-19T16:47:14;101225.83;;;8.39;69.12
44453;BME280;30155;52.164;21.236;2022-10-19T16:52:06;101222.03;;;8.30;69.51
44453;BME280;30155;52.164;21.236;2022-10-19T16:56:57;101240.02;;;8.25;69.37
44453;BME280;30155;52.164;21.236;2022-10-19T17:01:53;101244.05;;;8.17;69.54
44453;BME280;30155;52.164;21.236;2022-10-19T17:06:44;101251.98;;;8.09;69.75
44453;BME280;30155;52.164;21.236;2022-10-19T17:11:37;101255.66;;;7.91;70.04
44453;BME280;30155;52.164;21.236;2022-10-19T17:22:02;101267.06;;;7.85;70.13
44453;BME280;30155;52.164;21.236;2022-10-19T17:26:59;101274.14;;;7.78;70.14
44453;BME280;30155;52.164;21.236;2022-10-19T17:31:51;101279.45;;;7.70;70.52
44453;BME280;30155;52.164;21.236;2022-10-19T17:36:45;101284.66;;;7.58;70.48
44453;BME280;30155;52.164;21.236;2022-10-19T17:41:37;101287.47;;;7.53;70.70
44453;BME280;30155;52.164;21.236;2022-10-19T17:46:30;101291.45;;;7.45;70.99
44453;BME280;30155;52.164;21.236;2022-10-19T17:51:27;101309.34;;;7.39;71.10
44453;BME280;30155;52.164;21.236;2022-10-19T17:56:20;101311.02;;;7.27;71.20
44453;BME280;30155;52.164;21.236;2022-10-19T18:01:13;101309.30;;;7.16;71.37
44453;BME280;30155;52.164;21.236;2022-10-19T18:06:17;101314.09;;;7.07;71.50
44453;BME280;30155;52.164;21.236;2022-10-19T18:11:17;101321.28;;;6.93;71.93
44453;BME280;30155;52.164;21.236;2022-10-19T18:16:13;101321.28;;;6.93;71.93
44453;BME280;30155;52.164;21.236;2022-10-19T18:21:08;101321.78;;;6.84;71.86
44453;BME280;30155;52.164;21.236;2022-10-19T18:26:06;101329.16;;;6.75;71.96
44453;BME280;30155;52.164;21.236;2022-10-19T18:36:25;101328.09;;;6.60;72.41
44453;BME280;30155;52.164;21.236;2022-10-19T18:41:17;101336.13;;;6.57;72.53
44453;BME280;30155;52.164;21.236;2022-10-19T18:46:09;101324.95;;;6.58;72.76
44453;BME280;30155;52.164;21.236;2022-10-19T18:51:04;101328.31;;;6.55;72.80
44453;BME280;30155;52.164;21.236;2022-10-19T18:56:00;101342.66;;;6.48;72.79
44453;BME280;30155;52.164;21.236;2022-10-19T19:06:02;101352.86;;;6.36;73.12
44453;BME280;30155;52.164;21.236;2022-10-19T19:11:19;101355.11;;;6.28;73.19
44453;BME280;30155;52.164;21.236;2022-10-19T19:16:00;101360.40;;;6.21;73.36
44453;BME280;30155;52.164;21.236;2022-10-19T19:20:53;101359.80;;;6.17;73.59
44453;BME280;30155;52.164;21.236;2022-10-19T19:26:09;101364.25;;;6.11;73.71
44453;BME280;30155;52.164;21.236;2022-10-19T19:31:07;101374.46;;;6.08;73.95
44453;BME280;30155;52.164;21.236;2022-10-19T19:36:04;101383.84;;;6.06;74.06
44453;BME280;30155;52.164;21.236;2022-10-19T19:40:57;101393.52;;;6.02;74.15
44453;BME280;30155;52.164;21.236;2022-10-19T19:45:55;101396.78;;;5.98;74.36
44453;BME280;30155;52.164;21.236;2022-10-19T19:50:48;101394.84;;;5.94;74.42
44453;BME280;30155;52.164;21.236;2022-10-19T19:55:39;101400.02;;;5.94;74.69
44453;BME280;30155;52.164;21.236;2022-10-19T20:00:30;101408.02;;;5.90;74.70
44453;BME280;30155;52.164;21.236;2022-10-19T20:05:22;101418.69;;;5.88;74.74
44453;BME280;30155;52.164;21.236;2022-10-19T20:10:15;101418.94;;;5.85;74.89
44453;BME280;30155;52.164;21.236;2022-10-19T20:25:52;101446.78;;;5.74;75.23
44453;BME280;30155;52.164;21.236;2022-10-19T20:30:43;101449.16;;;5.69;75.28
44453;BME280;30155;52.164;21.236;2022-10-19T20:45:53;101461.62;;;5.60;75.41
44453;BME280;30155;52.164;21.236;2022-10-19T20:51:11;101475.11;;;5.54;75.52
44453;BME280;30155;52.164;21.236;2022-10-19T20:55:54;101474.78;;;5.48;75.78
44453;BME280;30155;52.164;21.236;2022-10-19T21:06:03;101477.66;;;5.37;75.90
44453;BME280;30155;52.164;21.236;2022-10-19T21:10:51;101478.95;;;5.37;76.15
44453;BME280;30155;52.164;21.236;2022-10-19T21:15:49;101476.53;;;5.31;76.13
44453;BME280;30155;52.164;21.236;2022-10-19T21:20:52;101476.38;;;5.28;76.29
44453;BME280;30155;52.164;21.236;2022-10-19T21:25:52;101480.57;;;5.18;76.03
44453;BME280;30155;52.164;21.236;2022-10-19T21:30:51;101491.05;;;5.13;76.38
44453;BME280;30155;52.164;21.236;2022-10-19T21:36:08;101495.02;;;5.06;76.51
44453;BME280;30155;52.164;21.236;2022-10-19T21:41:01;101490.91;;;5.02;76.88
44453;BME280;30155;52.164;21.236;2022-10-19T21:46:16;101493.64;;;4.96;76.75
44453;BME280;30155;52.164;21.236;2022-10-19T21:56:49;101496.62;;;4.88;77.03
44453;BME280;30155;52.164;21.236;2022-10-19T22:01:43;101486.88;;;4.82;77.17
44453;BME280;30155;52.164;21.236;2022-10-19T22:06:37;101491.87;;;4.79;77.44
44453;BME280;30155;52.164;21.236;2022-10-19T22:11:33;101488.00;;;4.79;77.63
44453;BME280;30155;52.164;21.236;2022-10-19T22:16:24;101488.24;;;4.75;77.66
44453;BME280;30155;52.164;21.236;2022-10-19T22:21:19;101495.92;;;4.74;77.86
44453;BME280;30155;52.164;21.236;2022-10-19T22:26:18;101502.66;;;4.72;77.82
44453;BME280;30155;52.164;21.236;2022-10-19T22:31:17;101503.12;;;4.65;78.02
44453;BME280;30155;52.164;21.236;2022-10-19T22:36:10;101507.64;;;4.61;78.02
44453;BME280;30155;52.164;21.236;2022-10-19T22:41:03;101505.22;;;4.55;77.86
44453;BME280;30155;52.164;21.236;2022-10-19T22:45:55;101513.41;;;4.48;77.65
44453;BME280;30155;52.164;21.236;2022-10-19T22:50:46;101523.72;;;4.40;77.90
44453;BME280;30155;52.164;21.236;2022-10-19T22:55:37;101518.80;;;4.36;78.21
44453;BME280;30155;52.164;21.236;2022-10-19T23:00:29;101532.78;;;4.33;78.30
44453;BME280;30155;52.164;21.236;2022-10-19T23:05:20;101524.80;;;4.29;78.31
44453;BME280;30155;52.164;21.236;2022-10-19T23:10:11;101532.66;;;4.24;78.05
44453;BME280;30155;52.164;21.236;2022-10-19T23:15:03;101538.53;;;4.21;78.53
44453;BME280;30155;52.164;21.236;2022-10-19T23:19:54;101540.61;;;4.20;78.71
44453;BME280;30155;52.164;21.236;2022-10-19T23:24:45;101543.91;;;4.17;78.73
44453;BME280;30155;52.164;21.236;2022-10-19T23:29:36;101548.41;;;4.13;78.66
44453;BME280;30155;52.164;21.236;2022-10-19T23:34:27;101548.14;;;4.09;78.78
44453;BME280;30155;52.164;21.236;2022-10-19T23:39:18;101554.48;;;4.07;78.87
44453;BME280;30155;52.164;21.236;2022-10-19T23:44:09;101556.31;;;4.01;78.93
44453;BME280;30155;52.164;21.236;2022-10-19T23:49:01;101569.59;;;4.01;79.18
44453;BME280;30155;52.164;21.236;2022-10-19T23:53:52;101580.02;;;3.96;78.91
44453;BME280;30155;52.164;21.236;2022-10-19T23:58:45;101586.58;;;3.91;78.93
